Time;durP1;ratioP1;P1;durP2;ratioP2;P2;SDS_P1;SDS_P2;PMS_P1;PMS_P2;Temp;Humidity;BMP_temperature;BMP_pressure;BME280_temperature;BME280_humidity;BME280_pressure;Samples;Min_cycle;Max_cycle;Signal;HPM_P1;HPM_P2
2022/08/10 00:01:51;;;;;;;2.53;2.53;;;;;;;17.34;83.10;66013.56;5114564;28;20192;-74
2022/08/10 00:04:20;;;;;;;2.23;2.23;;;;;;;17.28;83.41;66004.81;5131823;28;20185;-74
2022/08/10 00:06:52;;;;;;;2.20;2.20;;;;;;;17.23;83.80;66001.31;5124227;28;20213;-73
2022/08/10 00:09:20;;;;;;;2.57;2.47;;;;;;;17.20;84.15;66006.38;5117603;28;20263;-73
2022/08/10 00:11:46;;;;;;;2.83;2.63;;;;;;;17.09;84.81;65986.25;5123211;28;20236;-74
2022/08/10 00:14:12;;;;;;;2.60;2.60;;;;;;;;;;5133752;28;20546;-74
2022/08/10 00:16:39;;;;;;;2.60;2.60;;;;;;;17.04;85.41;65991.16;5130865;27;20241;-74
2022/08/10 00:19:05;;;;;;;2.60;2.60;;;;;;;;;;5131972;28;20203;-73
2022/08/10 00:21:32;;;;;;;2.20;2.20;;;;;;;16.97;86.05;65972.88;5112723;28;20216;-73
2022/08/10 00:23:58;;;;;;;2.70;2.70;;;;;;;16.87;86.58;65961.75;5132303;28;20173;-73
2022/08/10 00:26:24;;;;;;;2.77;2.77;;;;;;;16.84;86.78;65956.31;5130461;27;20208;-73
2022/08/10 00:28:51;;;;;;;4.43;3.00;;;;;;;;;;5122832;28;20675;-73
2022/08/10 00:31:18;;;;;;;3.10;3.10;;;;;;;16.78;87.79;65958.03;5113858;28;20197;-72
2022/08/10 00:33:44;;;;;;;2.60;2.60;;;;;;;16.77;87.36;65954.31;5134363;28;20177;-74
2022/08/10 00:36:10;;;;;;;3.00;3.00;;;;;;;;;;5113175;28;20253;-73
2022/08/10 00:38:37;;;;;;;2.97;2.97;;;;;;;;;;5112321;28;20553;-73
2022/08/10 00:41:03;;;;;;;3.10;3.10;;;;;;;;;;5113008;28;20234;-73
2022/08/10 00:43:30;;;;;;;7.00;3.30;;;;;;;;;;5113511;28;20238;-73
2022/08/10 00:45:56;;;;;;;2.97;2.93;;;;;;;16.59;89.55;65931.06;5113565;28;20256;-73
2022/08/10 00:48:27;;;;;;;2.60;2.60;;;;;;;16.57;89.65;65934.63;5113431;28;20201;-73
2022/08/10 00:50:54;;;;;;;2.83;2.83;;;;;;;16.51;89.89;65920.09;5113312;28;20247;-73
2022/08/10 00:53:21;;;;;;;3.27;3.17;;;;;;;16.50;90.08;65921.56;5113401;28;20220;-73
2022/08/10 00:55:48;;;;;;;2.93;2.83;;;;;;;16.46;90.60;65922.94;5113128;28;20246;-73
2022/08/10 00:58:37;;;;;;;2.83;2.70;;;;;;;16.43;90.94;65914.34;5092963;28;20174;-73
2022/08/10 01:01:04;;;;;;;2.90;2.90;;;;;;;16.42;91.04;65913.22;5092987;28;20199;-73
2022/08/10 01:03:31;;;;;;;3.00;3.00;;;;;;;16.40;90.99;65910.44;5092971;28;20531;-74
2022/08/10 01:06:30;;;;;;;3.10;3.10;;;;;;;16.35;91.86;65905.41;5092957;28;20625;-73
2022/08/10 01:09:29;;;;;;;3.30;3.30;;;;;;;16.33;92.03;65902.66;5092930;28;20227;-73
2022/08/10 01:11:56;;;;;;;3.13;3.13;;;;;;;;;;5093078;28;20198;-73
2022/08/10 01:15:03;;;;;;;4.77;2.80;;;;;;;16.28;92.43;65899.69;5111248;28;20280;-73
2022/08/10 01:17:49;;;;;;;2.80;2.80;;;;;;;16.22;93.10;65891.50;5113472;28;20173;-73
2022/08/10 01:20:27;;;;;;;3.20;3.20;;;;;;;16.18;93.55;65894.34;5113436;28;20169;-73
2022/08/10 01:23:27;;;;;;;2.97;2.97;;;;;;;16.16;93.90;65882.22;5113153;28;20184;-74
2022/08/10 01:26:34;;;;;;;2.57;2.57;;;;;;;16.13;94.15;65881.47;5113042;28;20251;-73
2022/08/10 01:29:34;;;;;;;3.20;3.20;;;;;;;16.05;95.29;65877.25;5116397;28;20173;-74
2022/08/10 01:32:05;;;;;;;3.73;3.47;;;;;;;16.07;95.19;65871.63;5116506;28;20209;-73
2022/08/10 01:34:50;;;;;;;3.03;3.03;;;;;;;16.01;95.42;65867.56;5116646;28;20189;-73
2022/08/10 01:37:21;;;;;;;3.33;3.33;;;;;;;15.92;96.16;65855.47;5116680;28;20691;-73
2022/08/10 01:39:55;;;;;;;3.63;3.53;;;;;;;15.96;96.22;65863.09;5116865;28;20224;-73
2022/08/10 01:42:23;;;;;;;3.73;3.53;;;;;;;15.88;96.50;65854.19;5117091;28;20205;-73
2022/08/10 01:45:01;;;;;;;3.37;3.37;;;;;;;15.87;96.66;65850.47;5116962;28;20246;-73
2022/08/10 01:50:28;;;;;;;3.23;3.23;;;;;;;15.80;97.41;65844.72;5116824;28;20255;-73
2022/08/10 01:53:02;;;;;;;3.23;3.13;;;;;;;15.78;97.60;65852.97;5116365;28;20203;-74
2022/08/10 01:55:30;;;;;;;3.70;3.70;;;;;;;15.77;97.77;65844.00;5116429;28;20212;-73
2022/08/10 01:57:58;;;;;;;3.30;3.30;;;;;;;;;;5116774;28;20246;-73
2022/08/10 02:00:26;;;;;;;3.27;3.17;;;;;;;15.73;98.11;65840.13;5116689;28;20182;-73
2022/08/10 02:02:54;;;;;;;2.83;2.83;;;;;;;15.71;98.22;65832.09;5116103;28;20547;-73
2022/08/10 02:05:23;;;;;;;3.27;3.27;;;;;;;15.68;98.30;65831.94;5115989;28;20698;-74
2022/08/10 02:07:50;;;;;;;3.37;3.17;;;;;;;15.65;98.55;65834.38;5115991;28;20239;-74
2022/08/10 02:10:19;;;;;;;4.23;3.93;;;;;;;;;;5116186;28;20679;-74
2022/08/10 02:12:47;;;;;;;3.33;3.33;;;;;;;15.67;98.68;65828.75;5115884;28;20193;-74
2022/08/10 02:15:17;;;;;;;2.93;2.93;;;;;;;15.62;99.01;65825.78;5115769;28;20221;-73
2022/08/10 02:17:53;;;;;;;3.13;3.13;;;;;;;15.57;99.18;65825.47;5116141;28;20575;-73
2022/08/10 02:20:33;;;;;;;3.33;2.93;;;;;;;15.61;99.09;65827.31;5116323;28;20162;-73
2022/08/10 02:23:02;;;;;;;3.10;3.10;;;;;;;;;;5115539;28;20674;-73
2022/08/10 02:25:29;;;;;;;3.30;3.30;;;;;;;;;;5115835;28;20250;-73
2022/08/10 02:28:13;;;;;;;3.30;3.30;;;;;;;15.51;99.65;65810.91;5115508;28;20603;-73
2022/08/10 02:31:01;;;;;;;3.37;3.37;;;;;;;15.48;99.81;65810.19;5097265;28;20743;-73
2022/08/10 02:33:29;;;;;;;3.47;3.37;;;;;;;15.44;99.70;65805.75;5115428;28;20181;-73
2022/08/10 02:36:00;;;;;;;3.57;3.27;;;;;;;15.43;100.00;65804.63;5115352;28;20202;-73
2022/08/10 02:38:36;;;;;;;4.07;3.87;;;;;;;15.36;100.00;65794.78;5115391;28;20215;-73
2022/08/10 02:41:44;;;;;;;3.63;3.60;;;;;;;15.32;100.00;65790.31;5115425;28;20196;-73
2022/08/10 02:44:58;;;;;;;3.30;3.30;;;;;;;15.26;100.00;65783.63;5115873;28;20181;-73
2022/08/10 02:47:49;;;;;;;5.73;3.70;;;;;;;;;;5115780;28;20189;-73
2022/08/10 02:50:30;;;;;;;3.80;3.80;;;;;;;15.18;100.00;65774.19;5115090;28;20541;-73
2022/08/10 02:53:10;;;;;;;3.23;3.23;;;;;;;15.09;100.00;65767.34;5115447;28;20181;-73
2022/08/10 02:56:03;;;;;;;4.07;3.90;;;;;;;;;;5115042;28;20284;-73
2022/08/10 02:58:38;;;;;;;3.47;3.37;;;;;;;15.09;100.00;65765.28;5115321;28;20178;-73
2022/08/10 03:01:09;;;;;;;3.90;3.80;;;;;;;15.07;100.00;65765.09;5115029;28;20218;-74
2022/08/10 03:03:46;;;;;;;3.13;3.13;;;;;;;;;;5115256;28;20227;-74
2022/08/10 03:06:16;;;;;;;3.60;3.60;;;;;;;15.03;100.00;65761.22;5114903;28;20220;-73
2022/08/10 03:08:44;;;;;;;3.83;3.73;;;;;;;15.07;100.00;65765.69;5115116;28;20223;-73
2022/08/10 03:11:19;;;;;;;3.40;3.40;;;;;;;15.11;100.00;65761.72;5114937;28;20262;-73
2022/08/10 03:14:07;;;;;;;3.13;3.13;;;;;;;15.02;100.00;65762.16;5114973;28;20253;-73
2022/08/10 03:16:35;;;;;;;3.83;3.83;;;;;;;14.99;100.00;65754.16;5114580;28;20205;-73
2022/08/10 03:19:04;;;;;;;4.33;4.13;;;;;;;14.96;100.00;65755.50;5114635;28;20220;-73
2022/08/10 03:21:34;;;;;;;3.90;3.60;;;;;;;14.93;100.00;65747.50;5114564;28;20222;-73
2022/08/10 03:24:02;;;;;;;3.87;3.87;;;;;;;14.96;100.00;65763.88;5114813;28;20213;-73
2022/08/10 03:26:49;;;;;;;3.40;3.40;;;;;;;14.96;100.00;65753.44;5114426;28;20645;-73
2022/08/10 03:29:18;;;;;;;3.80;3.50;;;;;;;14.86;100.00;65744.94;5114477;28;20193;-73
2022/08/10 03:31:46;;;;;;;3.47;3.47;;;;;;;14.91;100.00;65745.25;5114562;28;20248;-73
2022/08/10 03:34:13;;;;;;;3.67;3.67;;;;;;;;;;5114239;28;20193;-73
2022/08/10 03:36:59;;;;;;;3.87;3.70;;;;;;;14.89;100.00;65755.53;5114502;28;20679;-73
2022/08/10 03:39:25;;;;;;;4.70;4.40;;;;;;;;;;5114491;28;20217;-73
2022/08/10 03:41:56;;;;;;;3.90;3.90;;;;;;;14.80;100.00;65741.41;5114234;28;20174;-73
2022/08/10 03:44:28;;;;;;;4.07;3.97;;;;;;;14.79;100.00;65731.91;5114474;28;20201;-73
2022/08/10 03:46:59;;;;;;;3.87;3.77;;;;;;;14.80;100.00;65735.63;5113953;28;20584;-73
2022/08/10 03:49:27;;;;;;;3.87;3.87;;;;;;;14.80;100.00;65733.56;5114414;28;20205;-73
2022/08/10 03:51:54;;;;;;;3.33;3.33;;;;;;;14.80;100.00;65733.03;5114079;28;20205;-74
2022/08/10 03:54:23;;;;;;;3.60;3.60;;;;;;;14.76;100.00;65731.72;5114027;28;20185;-74
2022/08/10 03:56:50;;;;;;;4.03;4.03;;;;;;;14.76;100.00;65731.72;5114218;28;20233;-73
2022/08/10 03:59:17;;;;;;;3.80;3.80;;;;;;;14.74;100.00;65726.34;5114172;28;20214;-73
2022/08/10 04:01:44;;;;;;;3.73;3.73;;;;;;;14.63;100.00;65716.72;5113819;28;20189;-73
2022/08/10 04:04:32;;;;;;;3.23;3.23;;;;;;;14.66;100.00;65717.44;5113831;28;20195;-73
2022/08/10 04:06:58;;;;;;;3.97;3.63;;;;;;;;;;5113804;28;20204;-73
2022/08/10 04:09:27;;;;;;;3.83;3.80;;;;;;;14.54;100.00;65704.66;5114108;28;20213;-73
2022/08/10 04:12:14;;;;;;;4.17;4.17;;;;;;;14.54;100.00;65707.25;5114280;28;20220;-73
2022/08/10 04:14:41;;;;;;;4.20;4.10;;;;;;;14.53;100.00;65706.16;5113648;28;20181;-72
2022/08/10 04:17:23;;;;;;;4.27;4.07;;;;;;;14.44;100.00;65699.28;5114023;28;20172;-73
2022/08/10 04:20:18;;;;;;;4.10;3.90;;;;;;;14.49;100.00;65704.31;5113559;28;20211;-73
2022/08/10 04:22:47;;;;;;;4.53;4.53;;;;;;;;;;5113924;28;20200;-73
2022/08/10 04:25:14;;;;;;;3.53;3.53;;;;;;;;;;5113812;28;20236;-73
2022/08/10 04:27:41;;;;;;;4.33;4.33;;;;;;;14.44;100.00;65699.28;5113536;28;20193;-73
2022/08/10 04:30:08;;;;;;;3.90;3.90;;;;;;;14.43;100.00;65695.00;5113858;28;20181;-73
2022/08/10 04:32:36;;;;;;;4.40;4.10;;;;;;;14.47;100.00;65697.41;5113471;28;20201;-73
2022/08/10 04:35:03;;;;;;;4.80;4.60;;;;;;;14.46;100.00;65696.31;5093260;28;20206;-73
2022/08/10 04:37:30;;;;;;;4.60;4.60;;;;;;;14.47;100.00;65704.69;5101600;28;20197;-73
2022/08/10 04:39:57;;;;;;;3.87;3.87;;;;;;;14.42;100.00;65691.81;5113999;28;20210;-74
2022/08/10 04:42:24;;;;;;;4.40;4.30;;;;;;;14.42;100.00;65693.88;5113672;28;20185;-74
2022/08/10 04:44:50;;;;;;;4.63;4.20;;;;;;;14.43;100.00;65695.56;5113335;28;20230;-73
2022/08/10 04:47:17;;;;;;;4.17;3.97;;;;;;;14.43;100.00;65695.56;5113972;28;20584;-73
2022/08/10 04:50:04;;;;;;;4.60;4.50;;;;;;;14.38;100.00;65689.44;5113392;28;20533;-73
2022/08/10 04:52:30;;;;;;;4.20;4.10;;;;;;;14.42;100.00;65694.44;5113551;28;20205;-74
2022/08/10 04:54:57;;;;;;;4.63;4.57;;;;;;;14.48;100.00;65708.97;5113069;28;20197;-73
2022/08/10 04:57:24;;;;;;;4.90;4.80;;;;;;;14.48;100.00;65701.13;5113322;28;20219;-73
2022/08/10 04:59:50;;;;;;;4.30;4.30;;;;;;;14.48;100.00;65697.97;5113621;28;20254;-73
2022/08/10 05:02:17;;;;;;;4.50;4.50;;;;;;;14.52;100.00;65705.59;5113522;28;20209;-73
2022/08/10 05:04:56;;;;;;;4.63;4.53;;;;;;;;;;5117334;28;20570;-73
2022/08/10 05:07:22;;;;;;;4.17;4.07;;;;;;;14.65;100.00;65721.56;5117173;28;20647;-73
2022/08/10 05:09:49;;;;;;;5.30;5.20;;;;;;;;;;5117156;28;20658;-73
2022/08/10 05:12:35;;;;;;;4.20;4.20;;;;;;;14.81;100.00;65744.59;5117179;28;20254;-73
2022/08/10 05:15:06;;;;;;;4.87;4.77;;;;;;;14.86;100.00;65744.94;5117415;28;20562;-73
2022/08/10 05:17:34;;;;;;;4.60;4.57;;;;;;;14.88;100.00;65744.53;5099358;28;20181;-73
2022/08/10 05:20:03;;;;;;;4.50;4.50;;;;;;;14.98;100.00;65755.66;5116927;28;20189;-73
2022/08/10 05:22:38;;;;;;;4.73;4.43;;;;;;;15.06;100.00;65761.94;5117464;28;20523;-73
2022/08/10 05:25:07;;;;;;;5.33;5.03;;;;;;;15.12;100.00;65776.47;5117035;28;20208;-73
2022/08/10 05:27:34;;;;;;;4.27;4.27;;;;;;;15.13;100.00;65772.34;5116448;28;20236;-73
2022/08/10 05:30:00;;;;;;;5.00;4.90;;;;;;;15.19;100.00;65777.91;5096280;28;20181;-73
2022/08/10 05:32:31;;;;;;;4.00;4.00;;;;;;;15.17;100.00;65775.69;5096700;28;20248;-73
2022/08/10 05:34:57;;;;;;;4.53;4.53;;;;;;;15.23;100.00;65780.31;5115992;28;20546;-73
2022/08/10 05:37:24;;;;;;;4.80;4.43;;;;;;;15.32;100.00;65792.38;5116481;28;20238;-74
2022/08/10 05:40:11;;;;;;;4.37;4.30;;;;;;;15.36;100.00;65796.84;5117020;28;20594;-74
2022/08/10 05:42:38;;;;;;;4.30;4.17;;;;;;;15.42;100.00;65806.13;5098604;28;20223;-73
2022/08/10 05:45:08;;;;;;;5.00;4.87;;;;;;;;;;5116462;28;20628;-73
2022/08/10 05:47:34;;;;;;;4.57;4.57;;;;;;;15.52;100.00;65814.66;5116896;28;20224;-73
2022/08/10 05:50:25;;;;;;;5.47;5.07;;;;;;;15.60;100.00;65823.00;5116478;28;20215;-73
2022/08/10 05:52:53;;;;;;;4.63;4.63;;;;;;;15.75;100.00;65836.53;5116504;28;20274;-73
2022/08/10 05:55:21;;;;;;;5.30;4.90;;;;;;;15.83;100.00;65845.44;5116341;28;20228;-73
2022/08/10 05:57:47;;;;;;;5.87;5.83;;;;;;;15.83;99.26;65848.63;5116353;28;20720;-74
2022/08/10 06:00:18;;;;;;;5.37;4.73;;;;;;;15.85;99.67;65850.28;5106722;28;20667;-74
2022/08/10 06:03:07;;;;;;;5.90;5.70;;;;;;;15.89;98.82;65854.75;5113446;28;20781;-73
2022/08/10 06:05:36;;;;;;;12.53;5.30;;;;;;;;;;5115934;28;20248;-74
2022/08/10 06:08:14;;;;;;;5.10;4.90;;;;;;;15.92;97.82;65858.63;5116846;27;20217;-73
2022/08/10 06:10:43;;;;;;;7.93;5.10;;;;;;;16.07;97.66;65874.78;5116255;27;20211;-74
2022/08/10 06:16:36;;;;;;;4.83;4.73;;;;;;;16.16;97.18;65884.28;5114859;28;20204;-73
2022/08/10 06:19:03;;;;;;;5.00;4.90;;;;;;;16.30;96.23;65897.25;5114867;28;20619;-73
2022/08/10 06:21:31;;;;;;;5.30;5.07;;;;;;;16.39;95.73;65909.88;5117541;27;20635;-73
2022/08/10 06:24:00;;;;;;;4.50;4.43;;;;;;;16.48;95.01;65916.72;5136245;27;20189;-73
2022/08/10 06:26:27;;;;;;;4.83;4.83;;;;;;;16.56;94.41;65928.25;5132960;27;20221;-73
2022/08/10 06:28:58;;;;;;;4.57;4.43;;;;;;;16.73;93.37;65939.38;5136114;27;20584;-74
2022/08/10 06:31:32;;;;;;;4.93;4.63;;;;;;;16.90;93.69;65962.44;5136050;27;20199;-73
2022/08/10 06:34:19;;;;;;;3.80;3.70;;;;;;;16.95;92.78;65970.66;5131433;27;20185;-73
2022/08/10 06:36:46;;;;;;;4.70;4.27;;;;;;;17.03;92.31;65977.50;5136441;27;20584;-73
2022/08/10 06:39:13;;;;;;;4.33;4.27;;;;;;;17.11;91.33;65985.31;5136256;27;20207;-74
2022/08/10 06:42:13;;;;;;;4.03;4.03;;;;;;;17.22;91.37;65998.13;5133785;27;20184;-74
2022/08/10 06:44:54;;;;;;;4.33;4.23;;;;;;;;;;5134548;27;20181;-73
2022/08/10 06:47:22;;;;;;;4.47;4.10;;;;;;;;;;5135693;27;20204;-73
2022/08/10 06:49:54;;;;;;;3.80;3.80;;;;;;;17.54;89.35;66033.25;5135763;27;20297;-74
2022/08/10 06:52:28;;;;;;;5.17;4.77;;;;;;;17.67;88.46;66047.19;5125004;27;20193;-73
2022/08/10 06:54:57;;;;;;;6.43;4.70;;;;;;;17.75;87.67;66058.75;5113124;28;20623;-73
2022/08/10 06:57:29;;;;;;;3.67;3.67;;;;;;;17.87;87.51;66071.59;5115915;27;20935;-74
2022/08/10 06:59:59;;;;;;;4.07;4.07;;;;;;;18.02;85.35;66088.31;5124640;27;20610;-73
2022/08/10 07:02:33;;;;;;;3.83;3.83;;;;;;;18.11;85.62;66095.19;5120910;27;20268;-73
2022/08/10 07:05:02;;;;;;;4.00;3.80;;;;;;;18.27;85.99;66115.09;5113780;27;20181;-74
2022/08/10 07:07:33;;;;;;;4.80;4.67;;;;;;;18.32;82.01;66121.25;5113040;28;20246;-73
2022/08/10 07:10:00;;;;;;;4.23;4.07;;;;;;;18.36;82.51;66123.09;5135255;27;20223;-74
2022/08/10 07:12:29;;;;;;;4.57;4.40;;;;;;;18.41;80.99;66128.66;5132729;27;20204;-74
2022/08/10 07:14:58;;;;;;;8.00;4.47;;;;;;;18.37;81.18;66124.19;5131138;27;20780;-74
2022/08/10 07:17:26;;;;;;;4.53;4.33;;;;;;;18.40;81.84;66119.09;5135102;27;20225;-73
2022/08/10 07:19:58;;;;;;;3.73;3.63;;;;;;;18.50;81.68;66138.13;5134950;27;20526;-74
2022/08/10 07:22:30;;;;;;;3.90;3.80;;;;;;;18.56;80.54;66152.72;5112818;27;20242;-74
2022/08/10 07:25:21;;;;;;;4.07;3.97;;;;;;;18.69;80.37;66158.81;5114156;28;20717;-73
2022/08/10 07:27:48;;;;;;;3.77;3.67;;;;;;;;;;5114621;28;20567;-74
2022/08/10 07:30:28;;;;;;;4.50;4.17;;;;;;;;;;5114623;28;20177;-75
2022/08/10 07:32:55;;;;;;;3.80;3.70;;;;;;;18.76;79.64;66168.69;5114354;28;20235;-75
2022/08/10 07:35:25;;;;;;;4.30;4.13;;;;;;;18.88;78.96;66185.28;5111327;28;20270;-73
2022/08/10 07:37:53;;;;;;;3.63;3.53;;;;;;;18.95;79.21;66187.28;5109584;28;20197;-74
2022/08/10 07:40:20;;;;;;;3.90;3.40;;;;;;;;;;5096778;28;20698;-74
2022/08/10 07:42:48;;;;;;;5.63;4.37;;;;;;;;;;5093829;28;20656;-74
2022/08/10 07:45:14;;;;;;;7.37;3.50;;;;;;;19.20;75.95;66209.94;5093924;28;20209;-74
2022/08/10 07:48:08;;;;;;;3.77;3.77;;;;;;;19.29;75.98;66216.22;5094026;28;20193;-74
2022/08/10 07:50:38;;;;;;;3.73;3.63;;;;;;;;;;5087139;28;20255;-74
2022/08/10 07:53:07;;;;;;;4.20;4.00;;;;;;;;;;5093923;28;20201;-74
2022/08/10 07:55:35;;;;;;;4.13;3.93;;;;;;;19.56;74.98;66254.28;5093748;28;20202;-74
2022/08/10 07:58:26;;;;;;;3.73;3.63;;;;;;;19.58;74.57;66259.19;5094201;28;20529;-74
2022/08/10 08:00:54;;;;;;;3.33;3.33;;;;;;;19.69;74.31;66270.91;5093877;28;20518;-74
2022/08/10 08:03:24;;;;;;;4.03;3.80;;;;;;;19.75;73.22;66278.19;5093555;28;20220;-74
2022/08/10 08:05:51;;;;;;;4.53;3.33;;;;;;;;;;5093391;28;20213;-74
2022/08/10 08:08:30;;;;;;;3.50;3.50;;;;;;;19.93;73.56;66295.13;5093782;28;20181;-74
2022/08/10 08:10:57;;;;;;;7.93;3.60;;;;;;;;;;5093389;28;20193;-74
2022/08/10 08:13:27;;;;;;;3.47;3.37;;;;;;;20.13;74.35;66316.88;5093363;28;20244;-74
2022/08/10 08:15:57;;;;;;;3.70;3.40;;;;;;;20.22;73.71;66326.97;5096348;28;20266;-74
2022/08/10 08:18:45;;;;;;;3.40;3.17;;;;;;;20.34;73.73;66342.44;5105278;28;20264;-73
2022/08/10 08:21:33;;;;;;;3.10;3.10;;;;;;;20.45;73.13;66354.22;5110257;28;20216;-75
2022/08/10 08:24:21;;;;;;;4.33;3.90;;;;;;;;;;5093827;28;20275;-74
2022/08/10 08:27:00;;;;;;;4.43;4.20;;;;;;;;;;5119947;28;20212;-74
2022/08/10 08:29:27;;;;;;;3.33;3.33;;;;;;;20.58;71.68;66366.66;5134495;28;20253;-74
2022/08/10 08:31:54;;;;;;;4.37;4.07;;;;;;;20.67;72.37;66376.16;5127870;28;20208;-73
2022/08/10 08:34:30;;;;;;;4.00;3.53;;;;;;;;;;5108969;28;20731;-74
2022/08/10 08:36:57;;;;;;;6.10;3.20;;;;;;;;;;5133912;27;20619;-75
2022/08/10 08:39:25;;;;;;;3.73;3.53;;;;;;;;;;5135507;27;20192;-74
2022/08/10 08:42:32;;;;;;;2.80;2.80;;;;;;;20.86;70.97;66397.44;5135458;27;20196;-74
2022/08/10 08:45:31;;;;;;;3.00;3.00;;;;;;;20.95;71.42;66401.66;5106827;27;20316;-75
2022/08/10 08:48:10;;;;;;;4.30;4.10;;;;;;;21.01;70.87;66418.91;5135366;27;20200;-74
2022/08/10 08:50:50;;;;;;;3.30;3.10;;;;;;;;;;5138106;27;20181;-75
2022/08/10 08:53:42;;;;;;;4.33;3.93;;;;;;;21.25;67.56;66439.38;5097298;28;20229;-74
2022/08/10 08:56:41;;;;;;;3.77;3.67;;;;;;;;;;5099701;28;20299;-73
2022/08/10 08:59:29;;;;;;;5.90;3.47;;;;;;;21.39;68.48;66455.03;5138305;27;20168;-75
2022/08/10 09:02:13;;;;;;;3.90;3.77;;;;;;;21.51;67.79;66463.19;5138454;27;20176;-74
2022/08/10 09:04:59;;;;;;;3.70;3.50;;;;;;;21.61;66.71;66473.81;5110681;28;20276;-74
2022/08/10 09:07:47;;;;;;;2.93;2.83;;;;;;;21.69;66.43;66490.69;5114598;28;20189;-75
2022/08/10 09:10:55;;;;;;;5.70;3.87;;;;;;;21.80;65.26;66499.81;5126721;27;20188;-74
2022/08/10 09:13:43;;;;;;;3.23;3.07;;;;;;;21.97;65.17;66519.41;5111894;27;20201;-74
2022/08/10 09:16:46;;;;;;;3.70;3.50;;;;;;;22.26;62.50;66553.41;5155535;27;21066;-74
2022/08/10 09:19:23;;;;;;;5.60;3.73;;;;;;;22.24;61.41;66543.25;5130289;27;20180;-75
2022/08/10 09:22:29;;;;;;;3.93;3.83;;;;;;;22.31;61.52;66561.09;5131598;28;20620;-75
2022/08/10 09:25:07;;;;;;;4.23;4.10;;;;;;;22.34;59.62;66559.16;5138460;27;20233;-75
2022/08/10 09:27:44;;;;;;;4.30;3.90;;;;;;;;;;5152501;27;20179;-75
2022/08/10 09:30:24;;;;;;;3.60;3.40;;;;;;;22.54;60.68;66581.56;5151492;27;20192;-75
2022/08/10 09:33:07;;;;;;;4.93;4.20;;;;;;;;;;5150252;27;20188;-75
2022/08/10 09:36:07;;;;;;;3.10;3.10;;;;;;;;;;5144044;27;20298;-74
2022/08/10 09:39:02;;;;;;;3.37;3.20;;;;;;;22.85;56.78;66615.16;5149727;27;20283;-75
2022/08/10 09:41:37;;;;;;;3.20;3.00;;;;;;;;;;5146872;27;20307;-75
2022/08/10 09:44:22;;;;;;;3.35;3.00;;;;;;;;;;5145269;27;20184;-75
2022/08/10 09:46:49;;;;;;;4.27;4.13;;;;;;;;;;5142190;27;20230;-75
2022/08/10 09:49:28;;;;;;;3.50;3.50;;;;;;;23.37;53.65;66672.34;5145775;27;20188;-75
2022/08/10 09:52:48;;;;;;;3.17;3.17;;;;;;;23.40;52.57;66670.38;5140808;27;20192;-76
2022/08/10 09:55:43;;;;;;;3.00;2.95;;;;;;;;;;5147802;27;20619;-76
2022/08/10 09:58:35;;;;;;;3.63;3.63;;;;;;;;;;5148010;27;20273;-75
2022/08/10 10:01:12;;;;;;;3.92;3.83;;;;;;;23.57;51.46;66689.44;5149296;27;20188;-75
2022/08/10 10:04:09;;;;;;;3.90;3.83;;;;;;;;;;5149817;27;20609;-76
2022/08/10 10:06:42;;;;;;;2.88;2.85;;;;;;;23.95;51.99;66738.91;5151670;27;20208;-75
2022/08/10 10:09:13;;;;;;;3.33;3.33;;;;;;;;;;5145861;27;20188;-76
2022/08/10 10:11:51;;;;;;;3.35;3.15;;;;;;;24.08;50.59;66745.53;5149809;27;20213;-75
2022/08/10 10:15:18;;;;;;;2.95;2.95;;;;;;;24.07;50.77;66750.25;5150293;27;20248;-76
2022/08/10 10:17:32;;;;;;;3.65;3.55;;;;;;;24.18;51.02;66764.69;5150487;27;20224;-75
2022/08/10 10:20:10;;;;;;;3.85;3.55;;;;;;;24.32;48.05;66777.75;5147844;27;20195;-74
2022/08/10 10:22:51;;;;;;;4.18;4.07;;;;;;;24.32;47.83;66780.38;5148919;27;20196;-75
2022/08/10 10:25:38;;;;;;;15.75;3.83;;;;;;;;;;5148108;27;20208;-75
2022/08/10 10:28:34;;;;;;;2.60;2.60;;;;;;;24.48;47.26;66794.56;5137503;27;20191;-76
2022/08/10 10:31:25;;;;;;;3.58;3.22;;;;;;;;;;5121023;27;20612;-75
2022/08/10 10:34:10;;;;;;;3.22;3.10;;;;;;;24.32;47.35;66771.88;5132058;27;20181;-75
2022/08/10 10:36:38;;;;;;;3.55;3.30;;;;;;;;;;5134655;27;20634;-72
2022/08/10 10:39:05;;;;;;;3.42;3.13;;;;;;;;;;5134725;27;20192;-75
2022/08/10 10:41:35;;;;;;;5.93;3.30;;;;;;;;;;5138040;27;20614;-75
2022/08/10 10:44:22;;;;;;;3.58;3.47;;;;;;;;;;5135422;27;20771;-75
2022/08/10 10:46:59;;;;;;;8.20;3.65;;;;;;;24.66;45.30;66814.78;5132026;27;20208;-75
2022/08/10 10:49:35;;;;;;;3.42;3.33;;;;;;;;;;5133769;27;20188;-75
2022/08/10 10:52:41;;;;;;;2.53;2.53;;;;;;;24.54;45.40;66796.00;5136613;27;20188;-75
2022/08/10 10:55:16;;;;;;;3.85;3.50;;;;;;;24.58;45.67;66805.81;5085244;28;20277;-75
2022/08/10 10:58:14;;;;;;;2.70;2.70;;;;;;;24.62;46.59;66813.50;5116410;28;20181;-76
2022/08/10 11:01:01;;;;;;;3.38;3.35;;;;;;;24.68;46.31;66817.56;5112939;28;20232;-75
2022/08/10 11:03:43;;;;;;;2.50;2.50;;;;;;;24.72;45.05;66816.19;5116126;28;20252;-75
2022/08/10 11:06:40;;;;;;;2.35;2.35;;;;;;;24.68;45.33;66817.03;5124282;27;20257;-75
2022/08/10 11:09:12;;;;;;;4.88;2.88;;;;;;;24.75;43.39;66819.56;5136080;27;20610;-74
2022/08/10 11:12:09;;;;;;;3.00;3.00;;;;;;;24.79;43.89;66831.44;5132889;27;20215;-75
2022/08/10 11:14:57;;;;;;;3.15;3.15;;;;;;;;;;5133372;27;20211;-75
2022/08/10 11:17:31;;;;;;;2.95;2.95;;;;;;;24.95;42.99;66849.97;5131856;27;20650;-75
2022/08/10 11:20:13;;;;;;;2.47;2.47;;;;;;;24.94;44.13;66851.50;5132414;27;20188;-74
2022/08/10 11:23:12;;;;;;;3.20;3.10;;;;;;;24.94;42.73;66848.28;5134252;27;20583;-73
2022/08/10 11:25:41;;;;;;;3.22;3.10;;;;;;;;;;5122082;27;20216;-75
2022/08/10 11:28:16;;;;;;;6.72;2.92;;;;;;;24.91;43.32;66844.91;5127001;27;20218;-75
2022/08/10 11:30:55;;;;;;;2.90;2.90;;;;;;;25.05;43.03;66857.44;5128716;27;20192;-75
2022/08/10 11:33:34;;;;;;;2.20;2.20;;;;;;;25.12;41.29;66873.25;5131733;27;20188;-75
2022/08/10 11:36:29;;;;;;;3.60;3.47;;;;;;;;;;5135705;27;20291;-74
2022/08/10 11:39:02;;;;;;;2.40;2.40;;;;;;;;;;5126427;27;20611;-75
2022/08/10 11:41:44;;;;;;;2.88;2.88;;;;;;;;;;5133052;27;20185;-75
2022/08/10 11:44:32;;;;;;;5.63;2.45;;;;;;;;;;5131115;27;20613;-76
2022/08/10 11:47:20;;;;;;;2.20;2.20;;;;;;;25.21;41.22;66875.94;5128142;27;20208;-76
2022/08/10 11:50:39;;;;;;;1.83;1.83;;;;;;;25.17;41.08;66865.59;5130368;27;20666;-77
2022/08/10 11:53:23;;;;;;;2.17;2.17;;;;;;;24.99;40.13;66854.44;5109031;27;20196;-76
2022/08/10 11:55:54;;;;;;;3.05;1.73;;;;;;;25.02;41.06;66862.59;5133806;27;20253;-76
2022/08/10 12:01:12;;;;;;;2.13;2.13;;;;;;;25.11;39.07;66858.84;5133781;27;20192;-75
2022/08/10 12:03:41;;;;;;;2.35;2.35;;;;;;;25.21;39.71;66875.38;5134204;27;20196;-76
2022/08/10 12:06:12;;;;;;;2.17;2.17;;;;;;;25.35;38.85;66890.53;5135128;27;20208;-76
2022/08/10 12:08:44;;;;;;;2.08;1.98;;;;;;;25.31;38.53;66886.06;5135115;27;20511;-76
2022/08/10 12:11:32;;;;;;;4.68;1.75;;;;;;;25.31;38.52;66881.31;5134539;27;20255;-75
2022/08/10 12:14:11;;;;;;;2.00;2.00;;;;;;;25.28;39.35;66883.25;5135213;27;20710;-76
2022/08/10 12:17:06;;;;;;;4.53;2.85;;;;;;;25.28;39.83;66883.25;5135009;27;20204;-76
2022/08/10 12:19:48;;;;;;;2.30;2.30;;;;;;;25.21;39.07;66878.03;5136038;27;20574;-75
2022/08/10 12:22:37;;;;;;;3.42;1.90;;;;;;;25.22;39.83;66879.19;5133800;27;20191;-76
2022/08/10 12:25:10;;;;;;;2.72;2.15;;;;;;;25.43;38.73;66900.09;5133077;27;20211;-75
2022/08/10 12:28:04;;;;;;;2.25;2.25;;;;;;;25.55;37.18;66915.09;5134885;27;20604;-75
2022/08/10 12:30:34;;;;;;;2.53;2.35;;;;;;;25.54;37.26;66911.88;5133176;27;20196;-74
2022/08/10 12:33:38;;;;;;;2.17;2.17;;;;;;;25.51;38.33;66908.50;5129492;27;20188;-73
2022/08/10 12:36:29;;;;;;;1.88;1.88;;;;;;;;;;5088815;27;20686;-74
2022/08/10 12:39:11;;;;;;;2.50;2.50;;;;;;;25.46;37.87;66906.09;5121062;27;20193;-73
2022/08/10 12:42:01;;;;;;;2.60;2.20;;;;;;;;;;5094767;28;20260;-73
2022/08/10 12:44:43;;;;;;;2.10;2.00;;;;;;;25.67;34.94;66926.47;5095606;28;20186;-75
2022/08/10 12:47:12;;;;;;;1.98;1.88;;;;;;;25.70;37.23;66921.28;5113806;28;20620;-76
2022/08/10 12:49:53;;;;;;;2.10;2.10;;;;;;;25.82;37.55;66942.78;5112657;28;20169;-74
2022/08/10 12:53:05;;;;;;;2.40;2.30;;;;;;;25.90;36.81;66951.75;5095744;28;20212;-75
2022/08/10 12:55:36;;;;;;;1.85;1.75;;;;;;;;;;5114028;28;20576;-75
2022/08/10 12:58:05;;;;;;;2.92;1.67;;;;;;;;;;5117614;27;20582;-75
2022/08/10 13:00:53;;;;;;;1.58;1.58;;;;;;;25.85;37.22;66946.13;5112073;28;20268;-73
2022/08/10 13:03:40;;;;;;;2.25;2.13;;;;;;;;;;5131587;27;20638;-76
2022/08/10 13:06:29;;;;;;;2.10;2.10;;;;;;;25.79;37.13;66942.06;5113931;28;20236;-75